Kliftrans — PCDB — position and weather

sailwx.info

Track history (hours):
 
Tides and Currents Weather Stations Pressure Air Temp Water Temp Dewpoint Dewpoint Depression Visibility Wind Speed Wind Dir Waves Ship Positions

Kliftrans

Last reported at 2015-Apr-19 23:33 UTC. Time now 2015-Apr-21 08:21 UTC.
Position N 38°14' E 012°22'.

Length 88 m; draft 3.7 m.

Type: Cargo ship. MMSI: 245132000.

Date/timePositionNaut miles runAvg speedWind from/ knotsBaromVisibWave heightAir tempDewpointWater temp
2015-Apr-19 23:33N 38°14' E 012°22'2211.1
2015-Apr-19 21:33N 38°16' E 012°50'1110.8
2015-Apr-19 20:33N 38°17' E 013°04'1010.5
2015-Apr-19 19:33N 38°18' E 013°17'1110.8
2015-Apr-19 18:33N 38°18' E 013°31'1110.7
2015-Apr-19 17:33N 38°18' E 013°45'1110.8
2015-Apr-19 16:32N 38°18' E 013°59'5310.7
2015-Apr-19 11:33N 38°19' E 015°07'1110.5
2015-Apr-19 10:33N 38°19' E 015°20'1110.5
2015-Apr-19 09:31N 38°19' E 015°34'7 4.6
2015-Apr-19 08:05N 38°13' E 015°37'9 9.7
2015-Apr-19 07:07N 38°04' E 015°37'610.2
2015-Apr-19 06:33N 37°58' E 015°37'116 9.7
2015-Apr-18 18:33N 39°07' E 017°36'4110.3
2015-Apr-18 14:33N 39°37' E 018°13'1110.2
2015-Apr-18 13:30N 39°44' E 018°23'9 9.4
2015-Apr-18 12:33N 39°52' E 018°28'  
Track history (hours):
 
Tides and Currents Weather Stations Pressure Air Temp Water Temp Dewpoint Dewpoint Depression Visibility Wind Speed Wind Dir Waves Ship Positions

Kliftrans

Last reported at 2015-Apr-19 23:33 UTC. Time now 2015-Apr-21 08:21 UTC.
Position N 38°14' E 012°22'.

Length 88 m; draft 3.7 m.

Type: Cargo ship. MMSI: 245132000.

Date/timePositionNaut miles runAvg speedWind from/ knotsBaromVisibWave heightAir tempDewpointWater temp
2015-Apr-19 23:33N 38°14' E 012°22'2211.1
2015-Apr-19 21:33N 38°16' E 012°50'1110.8
2015-Apr-19 20:33N 38°17' E 013°04'1010.5
2015-Apr-19 19:33N 38°18' E 013°17'1110.8
2015-Apr-19 18:33N 38°18' E 013°31'1110.7
2015-Apr-19 17:33N 38°18' E 013°45'1110.8
2015-Apr-19 16:32N 38°18' E 013°59'5310.7
2015-Apr-19 11:33N 38°19' E 015°07'1110.5
2015-Apr-19 10:33N 38°19' E 015°20'1110.5
2015-Apr-19 09:31N 38°19' E 015°34'7 4.6
2015-Apr-19 08:05N 38°13' E 015°37'9 9.7
2015-Apr-19 07:07N 38°04' E 015°37'610.2
2015-Apr-19 06:33N 37°58' E 015°37'116 9.7
2015-Apr-18 18:33N 39°07' E 017°36'4110.3
2015-Apr-18 14:33N 39°37' E 018°13'1110.2
2015-Apr-18 13:30N 39°44' E 018°23'9 9.4
2015-Apr-18 12:33N 39°52' E 018°28'  

Dump ship's entire track history